Time;durP1;ratioP1;P1;durP2;ratioP2;P2;SDS_P1;SDS_P2;PMS_P1;PMS_P2;Temp;Humidity;BMP_temperature;BMP_pressure;BME280_temperature;BME280_humidity;BME280_pressure;Samples;Min_cycle;Max_cycle;Signal;HPM_P1;HPM_P2
2021/04/08 00:02:10;;;;;;;6.13;3.72;;;3.70;93.30;;;;;;5075493;28;20143;-75
2021/04/08 00:04:37;;;;;;;6.63;3.35;;;3.70;93.10;;;;;;5095475;28;20488;-76
2021/04/08 00:07:04;;;;;;;7.22;3.53;;;3.70;93.30;;;;;;5083089;28;20591;-76
2021/04/08 00:09:31;;;;;;;6.65;3.15;;;3.70;93.50;;;;;;5098008;28;20119;-76
2021/04/08 00:11:57;;;;;;;6.00;3.60;;;3.60;94.00;;;;;;5071703;28;20048;-77
2021/04/08 00:14:25;;;;;;;6.05;3.30;;;3.70;93.70;;;;;;5103702;28;20052;-76
2021/04/08 00:16:52;;;;;;;6.15;3.28;;;3.70;93.70;;;;;;5091188;28;20094;-75
2021/04/08 00:19:20;;;;;;;8.18;3.25;;;3.60;94.20;;;;;;5075267;28;20044;-74
2021/04/08 00:21:47;;;;;;;6.57;3.33;;;3.60;94.20;;;;;;5092364;28;20482;-76
2021/04/08 00:24:14;;;;;;;5.07;2.90;;;3.60;94.40;;;;;;5093825;28;20139;-75
2021/04/08 00:26:41;;;;;;;7.78;3.88;;;3.70;94.20;;;;;;5102386;28;20055;-75
2021/04/08 00:29:08;;;;;;;5.78;3.22;;;3.70;94.00;;;;;;5094310;28;20052;-75
2021/04/08 00:31:35;;;;;;;6.07;3.05;;;3.70;93.90;;;;;;5098257;28;20055;-76
2021/04/08 00:34:01;;;;;;;7.00;3.30;;;3.70;94.00;;;;;;5094685;28;20501;-76
2021/04/08 00:36:29;;;;;;;5.75;3.00;;;3.70;94.30;;;;;;5082972;28;20072;-76
2021/04/08 00:38:56;;;;;;;8.88;3.65;;;3.70;94.40;;;;;;5066541;28;20090;-76
2021/04/08 00:41:24;;;;;;;7.15;2.80;;;3.70;94.40;;;;;;5078956;28;20102;-76
2021/04/08 00:43:50;;;;;;;7.40;2.72;;;3.70;94.40;;;;;;5081447;28;20124;-75
2021/04/08 00:46:17;;;;;;;7.38;3.15;;;3.90;94.30;;;;;;5083953;28;20044;-76
2021/04/08 00:48:44;;;;;;;5.90;2.95;;;3.80;93.90;;;;;;5087353;28;20099;-75
2021/04/08 00:51:10;;;;;;;5.45;2.50;;;3.80;94.00;;;;;;5059424;28;20186;-75
2021/04/08 00:53:38;;;;;;;6.03;3.20;;;3.90;94.20;;;;;;5096504;28;20071;-76
2021/04/08 00:56:05;;;;;;;8.63;3.50;;;3.90;94.30;;;;;;5092813;28;20482;-76
2021/04/08 00:58:34;;;;;;;6.50;3.30;;;3.90;93.50;;;;;;5073681;28;20145;-75
2021/04/08 01:01:01;;;;;;;7.28;3.55;;;4.00;93.40;;;;;;5073071;28;20136;-77
2021/04/08 01:03:28;;;;;;;5.55;3.00;;;4.00;93.70;;;;;;5055343;28;20045;-75
2021/04/08 01:05:54;;;;;;;7.18;3.78;;;3.90;94.00;;;;;;5059543;28;20108;-76
2021/04/08 01:08:21;;;;;;;5.88;3.00;;;3.90;94.10;;;;;;5098590;28;20055;-76
2021/04/08 01:10:49;;;;;;;6.68;3.60;;;3.80;94.30;;;;;;5077934;28;20068;-75
2021/04/08 01:13:19;;;;;;;6.38;3.30;;;3.80;94.40;;;;;;5055918;28;20144;-75
2021/04/08 01:15:46;;;;;;;6.82;3.80;;;3.70;94.40;;;;;;5055512;28;20040;-75
2021/04/08 01:18:30;;;;;;;6.25;3.08;;;3.90;94.30;;;;;;5074372;28;20051;-75
2021/04/08 01:21:18;;;;;;;5.75;3.22;;;3.80;94.60;;;;;;5072904;28;20059;-76
2021/04/08 01:24:20;;;;;;;7.90;3.50;;;3.80;94.70;;;;;;5083343;28;20489;-75
2021/04/08 01:27:35;;;;;;;8.57;3.78;;;3.80;94.70;;;;;;5071119;28;20512;-76
2021/04/08 01:30:18;;;;;;;6.70;3.65;;;3.80;94.60;;;;;;5072777;28;20051;-75
2021/04/08 01:32:51;;;;;;;6.88;3.70;;;3.90;94.40;;;;;;5072853;28;20051;-75
2021/04/08 01:35:25;;;;;;;8.10;3.90;;;3.80;94.30;;;;;;5072551;28;20439;-75
2021/04/08 01:38:04;;;;;;;7.90;4.00;;;3.90;94.20;;;;;;5090153;28;20048;-75
2021/04/08 01:40:31;;;;;;;5.45;3.38;;;3.90;94.20;;;;;;5092944;28;20072;-76
2021/04/08 01:42:57;;;;;;;7.10;3.90;;;3.90;94.30;;;;;;5075021;28;20455;-75
2021/04/08 01:45:25;;;;;;;5.15;3.35;;;3.90;94.00;;;;;;5085287;28;20131;-75
2021/04/08 01:47:54;;;;;;;8.32;3.50;;;3.90;93.90;;;;;;5075981;28;20468;-76
2021/04/08 01:50:22;;;;;;;11.02;4.07;;;3.90;94.00;;;;;;5072831;28;20128;-75
2021/04/08 01:52:52;;;;;;;7.82;4.00;;;3.80;93.80;;;;;;5072756;28;20076;-76
2021/04/08 01:55:20;;;;;;;7.25;3.83;;;3.80;93.90;;;;;;5073641;28;20043;-75
2021/04/08 01:57:49;;;;;;;6.53;3.78;;;3.80;93.90;;;;;;5072701;28;20064;-75
2021/04/08 02:00:20;;;;;;;8.40;3.92;;;3.80;93.80;;;;;;5072596;28;20049;-76
2021/04/08 02:02:50;;;;;;;7.10;3.58;;;3.80;93.70;;;;;;5072625;28;20044;-77
2021/04/08 02:05:18;;;;;;;6.78;3.67;;;3.80;93.80;;;;;;5072282;28;20136;-76
2021/04/08 02:07:47;;;;;;;7.07;3.70;;;3.70;93.90;;;;;;5075039;28;20071;-77
2021/04/08 02:10:16;;;;;;;6.57;3.30;;;3.60;94.00;;;;;;5072659;28;20087;-76
2021/04/08 02:12:48;;;;;;;7.05;3.60;;;3.80;93.80;;;;;;5072266;28;20093;-76
2021/04/08 02:15:17;;;;;;;6.22;3.25;;;3.80;93.90;;;;;;5072776;28;20135;-77
2021/04/08 02:17:47;;;;;;;6.45;3.95;;;3.70;94.10;;;;;;5090843;28;20528;-77
2021/04/08 02:20:17;;;;;;;6.18;3.60;;;3.70;94.00;;;;;;5090720;28;20136;-76
2021/04/08 02:22:47;;;;;;;6.93;3.80;;;3.70;94.20;;;;;;5075903;28;20174;-75
2021/04/08 02:25:16;;;;;;;7.50;3.50;;;3.70;93.80;;;;;;5076162;28;20143;-75
2021/04/08 02:27:44;;;;;;;8.02;3.83;;;3.70;94.10;;;;;;5093462;28;20075;-75
2021/04/08 02:30:15;;;;;;;7.07;3.28;;;3.70;93.70;;;;;;5096012;28;20541;-76
2021/04/08 02:32:42;;;;;;;7.93;3.28;;;3.70;93.50;;;;;;5062492;28;20178;-77
2021/04/08 02:35:12;;;;;;;8.27;3.60;;;3.70;93.40;;;;;;5075774;28;20127;-74
2021/04/08 02:37:41;;;;;;;6.18;3.20;;;3.70;93.50;;;;;;5092469;28;20481;-75
2021/04/08 02:40:11;;;;;;;7.43;3.30;;;3.70;93.60;;;;;;5095993;28;20073;-76
2021/04/08 02:42:38;;;;;;;5.70;3.00;;;3.70;93.60;;;;;;5096125;28;20328;-75
2021/04/08 02:45:08;;;;;;;6.95;2.97;;;3.80;93.40;;;;;;5095328;28;20143;-76
2021/04/08 02:47:35;;;;;;;8.00;3.42;;;3.70;93.20;;;;;;5087759;28;20076;-77
2021/04/08 02:50:02;;;;;;;7.30;3.13;;;3.70;93.50;;;;;;5079051;28;20049;-76
2021/04/08 02:52:40;;;;;;;5.50;2.70;;;3.70;93.20;;;;;;5095242;28;20523;-75
2021/04/08 02:55:15;;;;;;;6.00;2.83;;;3.70;93.40;;;;;;5095752;28;20477;-76
2021/04/08 02:57:54;;;;;;;5.72;2.53;;;3.60;93.60;;;;;;5094082;28;20048;-76
2021/04/08 03:00:23;;;;;;;7.93;3.00;;;3.60;94.00;;;;;;5077410;28;20052;-75
2021/04/08 03:02:53;;;;;;;6.30;2.63;;;3.60;93.40;;;;;;5097518;28;20120;-75
2021/04/08 03:05:21;;;;;;;6.15;2.83;;;3.70;93.10;;;;;;5092389;28;20072;-75
2021/04/08 03:07:52;;;;;;;6.18;2.88;;;3.70;93.30;;;;;;5055108;28;20123;-75
2021/04/08 03:10:19;;;;;;;6.32;3.00;;;3.70;93.30;;;;;;5073054;28;20127;-75
2021/04/08 03:12:50;;;;;;;7.00;2.95;;;3.70;93.00;;;;;;5073002;28;20549;-76
2021/04/08 03:15:26;;;;;;;5.20;2.53;;;3.70;92.90;;;;;;5072730;28;20083;-75
2021/04/08 03:17:54;;;;;;;5.28;2.90;;;3.70;93.00;;;;;;5073183;28;20083;-76
2021/04/08 03:20:21;;;;;;;4.75;2.50;;;3.60;93.20;;;;;;5072701;28;20518;-75
2021/04/08 03:22:51;;;;;;;8.07;2.75;;;3.60;93.40;;;;;;5073740;28;20135;-76
2021/04/08 03:25:19;;;;;;;5.35;2.55;;;3.60;93.50;;;;;;5072998;28;20131;-75
2021/04/08 03:27:48;;;;;;;4.93;2.42;;;3.60;93.60;;;;;;5089310;28;20135;-76
2021/04/08 03:30:16;;;;;;;6.95;2.53;;;3.60;93.60;;;;;;5092998;28;20123;-76
2021/04/08 03:32:44;;;;;;;5.45;2.65;;;3.50;93.60;;;;;;5092955;28;20075;-75
2021/04/08 03:35:13;;;;;;;5.97;2.28;;;3.50;93.60;;;;;;5092741;28;20131;-75
2021/04/08 03:37:41;;;;;;;6.72;2.55;;;3.50;93.70;;;;;;5072877;28;20143;-75
2021/04/08 03:40:11;;;;;;;4.78;2.42;;;3.50;93.60;;;;;;5072597;28;20080;-73
2021/04/08 03:42:39;;;;;;;6.13;2.63;;;3.50;93.50;;;;;;5077110;28;20501;-74
2021/04/08 03:45:11;;;;;;;4.45;2.50;;;3.50;93.60;;;;;;5064946;28;20079;-77
2021/04/08 03:47:41;;;;;;;7.43;2.30;;;3.40;93.50;;;;;;5065480;28;20099;-76
2021/04/08 03:50:10;;;;;;;4.82;2.13;;;3.50;93.80;;;;;;5083044;28;20087;-76
2021/04/08 03:52:38;;;;;;;5.18;1.95;;;3.40;93.70;;;;;;5075058;28;20084;-75
2021/04/08 03:55:10;;;;;;;4.10;2.15;;;3.50;93.60;;;;;;5072331;28;20442;-77
2021/04/08 03:57:39;;;;;;;4.80;2.10;;;3.40;93.70;;;;;;5087558;28;20048;-75
2021/04/08 04:00:09;;;;;;;7.63;2.40;;;3.50;93.00;;;;;;5092657;28;20154;-75
2021/04/08 04:02:38;;;;;;;5.85;2.17;;;3.50;93.00;;;;;;5094088;28;20147;-77
2021/04/08 04:05:09;;;;;;;5.55;2.00;;;3.50;93.70;;;;;;5094106;28;20055;-78
2021/04/08 04:07:37;;;;;;;7.03;2.15;;;3.50;93.10;;;;;;5078001;28;20078;-76
2021/04/08 04:10:07;;;;;;;7.50;2.13;;;3.60;93.30;;;;;;5056532;28;20406;-76
2021/04/08 04:12:36;;;;;;;5.15;1.80;;;3.50;93.10;;;;;;5075153;28;20084;-76
2021/04/08 04:15:07;;;;;;;4.55;2.00;;;3.50;93.50;;;;;;5074102;28;20079;-79
2021/04/08 04:17:34;;;;;;;5.22;2.20;;;3.50;93.20;;;;;;5057199;28;20533;-78
2021/04/08 04:20:05;;;;;;;5.65;2.17;;;3.50;93.40;;;;;;5074167;28;20048;-78
2021/04/08 04:22:32;;;;;;;4.55;2.22;;;3.50;93.20;;;;;;5073770;28;20500;-76
2021/04/08 04:24:59;;;;;;;4.75;2.50;;;3.60;93.20;;;;;;5074495;28;20131;-77
2021/04/08 04:27:26;;;;;;;5.45;2.40;;;3.60;92.90;;;;;;5073963;28;20048;-77
2021/04/08 04:29:53;;;;;;;4.70;2.08;;;3.70;92.60;;;;;;5074590;28;20055;-76
2021/04/08 04:32:20;;;;;;;5.95;2.20;;;3.60;93.00;;;;;;5081047;28;20131;-76
2021/04/08 04:34:47;;;;;;;4.95;2.15;;;3.60;93.10;;;;;;5093376;28;20142;-77
2021/04/08 04:37:13;;;;;;;5.60;2.20;;;3.60;92.70;;;;;;5094173;28;20472;-76
2021/04/08 04:39:40;;;;;;;4.30;2.25;;;3.60;92.80;;;;;;5099732;28;20044;-79
2021/04/08 04:42:08;;;;;;;7.38;2.40;;;3.60;92.70;;;;;;5099591;28;20501;-76
2021/04/08 04:44:35;;;;;;;5.20;2.00;;;3.60;92.70;;;;;;5075315;28;20044;-76
2021/04/08 04:47:03;;;;;;;5.63;2.20;;;3.60;92.80;;;;;;5093885;28;20044;-75
2021/04/08 04:49:30;;;;;;;5.93;2.05;;;3.50;92.80;;;;;;5093546;28;20569;-75
2021/04/08 04:51:56;;;;;;;4.80;2.28;;;3.50;92.70;;;;;;5093566;28;20076;-77
2021/04/08 04:54:23;;;;;;;4.43;2.00;;;3.50;92.90;;;;;;5093629;28;20044;-76
2021/04/08 04:56:50;;;;;;;5.10;2.20;;;3.40;93.30;;;;;;5093759;28;20080;-76
2021/04/08 04:59:17;;;;;;;6.78;1.92;;;3.40;92.90;;;;;;5093524;28;20083;-77
2021/04/08 05:01:43;;;;;;;6.68;2.30;;;3.50;92.80;;;;;;5093510;28;20081;-76
2021/04/08 05:04:11;;;;;;;3.63;1.98;;;3.50;92.70;;;;;;5103504;28;20044;-79
2021/04/08 05:06:37;;;;;;;5.95;2.22;;;3.50;93.00;;;;;;5105080;28;20059;-77
2021/04/08 05:09:05;;;;;;;5.40;1.90;;;3.50;92.90;;;;;;5104628;28;20044;-77
2021/04/08 05:11:33;;;;;;;6.45;2.42;;;3.50;92.80;;;;;;5096379;28;20099;-79
2021/04/08 05:13:59;;;;;;;5.90;1.90;;;3.50;92.90;;;;;;5093430;28;20127;-75
2021/04/08 05:16:26;;;;;;;5.13;1.90;;;3.50;92.90;;;;;;5093224;28;20078;-77
2021/04/08 05:18:53;;;;;;;5.68;2.30;;;3.60;93.00;;;;;;5102579;28;20074;-78
2021/04/08 05:21:20;;;;;;;4.78;2.00;;;3.60;92.90;;;;;;5098388;28;20044;-77
2021/04/08 05:23:47;;;;;;;5.47;2.20;;;3.60;93.00;;;;;;5093402;28;20494;-77
2021/04/08 05:26:14;;;;;;;7.05;2.70;;;3.50;93.10;;;;;;5100538;28;20513;-78
2021/04/08 05:28:40;;;;;;;4.88;2.08;;;3.50;93.40;;;;;;5095965;28;20349;-76
2021/04/08 05:31:07;;;;;;;6.93;2.67;;;3.50;93.30;;;;;;5095988;28;20056;-77
2021/04/08 05:33:33;;;;;;;5.55;2.60;;;3.50;93.20;;;;;;5101447;28;20071;-78
2021/04/08 05:36:00;;;;;;;4.95;2.30;;;3.50;93.20;;;;;;5099082;28;20079;-76
2021/04/08 05:38:27;;;;;;;5.20;1.80;;;3.50;93.50;;;;;;5095564;28;20075;-77
2021/04/08 05:40:54;;;;;;;6.00;2.08;;;3.50;93.70;;;;;;5094444;28;20148;-77
2021/04/08 05:43:21;;;;;;;6.40;2.20;;;3.60;92.90;;;;;;5092939;28;20482;-78
2021/04/08 05:45:48;;;;;;;5.60;2.10;;;3.60;92.60;;;;;;5075277;28;20066;-76
2021/04/08 05:48:14;;;;;;;4.85;2.13;;;3.60;92.80;;;;;;5092683;28;20117;-76
2021/04/08 05:50:42;;;;;;;5.30;2.10;;;3.60;92.70;;;;;;5093143;28;20472;-76
2021/04/08 05:53:08;;;;;;;4.65;2.03;;;3.70;92.30;;;;;;5092849;28;20044;-75
2021/04/08 05:55:36;;;;;;;6.68;2.10;;;3.70;92.50;;;;;;5094452;28;20072;-75
2021/04/08 05:58:02;;;;;;;6.03;2.10;;;3.80;92.30;;;;;;5096843;28;20468;-75
2021/04/08 06:00:29;;;;;;;4.97;2.40;;;3.80;92.20;;;;;;5097148;28;20044;-75
2021/04/08 06:02:56;;;;;;;4.78;2.08;;;3.90;91.70;;;;;;5096866;28;20465;-76
2021/04/08 06:05:22;;;;;;;5.82;2.10;;;3.90;92.00;;;;;;5096840;28;20127;-75
2021/04/08 06:07:49;;;;;;;5.35;2.25;;;3.90;92.10;;;;;;5097020;28;20484;-76
2021/04/08 06:10:16;;;;;;;7.88;2.50;;;3.90;92.80;;;;;;5088717;28;20367;-76
2021/04/08 06:12:44;;;;;;;5.22;2.45;;;4.00;92.60;;;;;;5076616;28;20053;-76
2021/04/08 06:15:13;;;;;;;5.57;2.10;;;4.10;92.30;;;;;;5076510;28;20057;-78
2021/04/08 06:17:40;;;;;;;6.25;2.38;;;4.10;92.40;;;;;;5076349;28;20044;-77
2021/04/08 06:20:08;;;;;;;6.43;2.50;;;4.20;91.90;;;;;;5076195;28;20080;-76
2021/04/08 06:22:35;;;;;;;5.88;2.33;;;4.30;91.60;;;;;;5075874;28;20068;-77
2021/04/08 06:25:01;;;;;;;5.43;2.10;;;4.20;92.00;;;;;;5075956;28;20040;-75
2021/04/08 06:27:32;;;;;;;6.07;2.40;;;4.30;91.40;;;;;;5076243;28;20072;-75
2021/04/08 06:29:59;;;;;;;5.18;2.25;;;4.20;91.70;;;;;;5076316;28;20041;-76
2021/04/08 06:32:26;;;;;;;6.65;2.17;;;4.30;91.50;;;;;;5079732;28;20049;-76
2021/04/08 06:34:52;;;;;;;16.00;3.17;;;4.30;91.60;;;;;;5082760;28;20052;-76
2021/04/08 06:37:19;;;;;;;7.00;2.78;;;4.40;91.40;;;;;;5087602;28;20053;-77
2021/04/08 06:39:46;;;;;;;6.47;3.08;;;4.50;91.20;;;;;;5080854;28;20553;-76
2021/04/08 06:42:17;;;;;;;7.28;2.40;;;4.50;90.80;;;;;;5076274;28;20048;-76
2021/04/08 06:44:50;;;;;;;5.15;2.40;;;4.40;91.10;;;;;;5076083;28;20048;-77
2021/04/08 06:47:24;;;;;;;5.72;2.17;;;4.50;90.90;;;;;;5076166;28;20052;-77
2021/04/08 06:49:55;;;;;;;7.10;2.55;;;4.50;91.00;;;;;;5076302;28;20055;-77
2021/04/08 06:52:24;;;;;;;5.38;2.67;;;4.60;90.50;;;;;;5076312;28;20446;-75
2021/04/08 06:54:51;;;;;;;6.72;2.40;;;4.60;90.30;;;;;;5078392;28;20098;-77
2021/04/08 06:57:19;;;;;;;7.07;2.10;;;4.70;90.40;;;;;;5078257;28;20124;-77
2021/04/08 06:59:47;;;;;;;5.22;2.70;;;4.70;90.40;;;;;;5077386;28;20084;-76
2021/04/08 07:02:19;;;;;;;6.07;2.50;;;4.80;89.20;;;;;;5075212;28;20477;-76
2021/04/08 07:04:45;;;;;;;6.45;2.40;;;4.80;87.90;;;;;;5075639;28;20079;-75
2021/04/08 07:07:14;;;;;;;6.82;2.70;;;4.80;87.90;;;;;;5074973;28;20090;-76
2021/04/08 07:09:41;;;;;;;7.68;2.80;;;4.80;88.10;;;;;;5057165;28;20056;-76
2021/04/08 07:12:10;;;;;;;5.55;2.72;;;4.70;88.90;;;;;;5082758;28;20052;-76
2021/04/08 07:14:37;;;;;;;7.10;3.05;;;4.70;88.40;;;;;;5075434;28;20080;-75
2021/04/08 07:17:09;;;;;;;5.75;2.60;;;4.70;88.80;;;;;;5075356;28;20127;-76
2021/04/08 07:19:37;;;;;;;7.07;3.00;;;4.50;89.40;;;;;;5075631;28;20121;-77
2021/04/08 07:22:04;;;;;;;7.32;2.90;;;4.60;90.00;;;;;;5075078;28;20080;-76
2021/04/08 07:24:41;;;;;;;7.18;2.70;;;4.70;87.40;;;;;;5074894;28;20079;-77
2021/04/08 07:27:07;;;;;;;7.80;3.00;;;4.70;87.00;;;;;;5075485;28;20076;-75
2021/04/08 07:29:53;;;;;;;7.47;3.00;;;4.60;89.20;;;;;;5075228;28;20478;-77
2021/04/08 07:32:27;;;;;;;8.00;3.15;;;4.70;90.40;;;;;;5075461;28;20044;-76
2021/04/08 07:34:56;;;;;;;5.45;2.50;;;4.70;90.30;;;;;;5086147;28;20040;-76
2021/04/08 07:37:27;;;;;;;6.25;2.65;;;4.90;89.00;;;;;;5077161;28;20079;-75
2021/04/08 07:39:55;;;;;;;6.78;2.90;;;4.90;87.80;;;;;;5074487;28;20482;-76
2021/04/08 07:42:29;;;;;;;6.32;2.50;;;4.90;89.30;;;;;;5074804;28;20131;-76
2021/04/08 07:44:59;;;;;;;6.95;2.80;;;5.00;88.80;;;;;;5074717;28;20080;-76
2021/04/08 07:47:29;;;;;;;7.13;2.67;;;5.10;87.40;;;;;;5074388;28;20078;-76
2021/04/08 07:50:11;;;;;;;7.88;2.67;;;5.10;86.20;;;;;;5075575;28;20080;-76
2021/04/08 07:52:39;;;;;;;6.20;2.45;;;5.10;84.90;;;;;;5075012;28;20410;-75
2021/04/08 07:55:17;;;;;;;5.28;2.35;;;5.10;83.50;;;;;;5075026;28;20127;-75
2021/04/08 07:58:02;;;;;;;5.50;2.38;;;4.90;84.50;;;;;;5074186;28;20079;-75
2021/04/08 08:00:32;;;;;;;7.03;2.90;;;4.80;84.70;;;;;;5056534;28;20051;-77
2021/04/08 08:03:01;;;;;;;6.70;2.25;;;4.70;86.80;;;;;;5074735;28;20155;-77
2021/04/08 08:05:30;;;;;;;6.32;2.65;;;4.80;86.10;;;;;;5074527;28;20139;-78
2021/04/08 08:08:14;;;;;;;5.72;2.55;;;4.80;85.10;;;;;;5074549;28;20053;-77
2021/04/08 08:10:44;;;;;;;6.97;2.63;;;4.80;86.30;;;;;;5072643;28;20044;-76
2021/04/08 08:13:27;;;;;;;7.18;2.70;;;4.90;85.30;;;;;;5074503;28;20500;-75
2021/04/08 08:15:56;;;;;;;6.75;3.05;;;5.00;85.00;;;;;;5073790;28;20147;-76
2021/04/08 08:18:29;;;;;;;6.00;2.72;;;5.00;83.30;;;;;;5072913;28;20409;-76
2021/04/08 08:21:16;;;;;;;5.10;2.58;;;5.10;83.90;;;;;;5073566;28;20076;-76
2021/04/08 08:23:47;;;;;;;5.53;2.60;;;5.10;83.40;;;;;;5074018;28;20055;-77
2021/04/08 08:26:34;;;;;;;6.88;2.53;;;5.30;81.80;;;;;;5074012;28;20070;-77
2021/04/08 08:29:03;;;;;;;5.65;2.50;;;5.20;82.70;;;;;;5073930;28;20052;-78
2021/04/08 08:31:44;;;;;;;8.82;2.72;;;5.60;82.10;;;;;;5073130;28;20135;-76
2021/04/08 08:34:14;;;;;;;6.07;2.88;;;5.70;81.50;;;;;;5073956;28;20045;-76
2021/04/08 08:36:44;;;;;;;4.57;2.70;;;5.70;78.40;;;;;;5055856;28;20478;-76
2021/04/08 08:39:13;;;;;;;6.43;2.83;;;5.80;77.70;;;;;;5074118;28;20076;-76
2021/04/08 08:41:41;;;;;;;7.82;2.60;;;5.90;75.00;;;;;;5073875;28;20127;-77
2021/04/08 08:44:10;;;;;;;6.65;2.60;;;5.80;76.50;;;;;;5074169;28;20069;-77
2021/04/08 08:46:47;;;;;;;5.03;2.60;;;5.80;76.40;;;;;;5074444;28;20048;-77
2021/04/08 08:49:20;;;;;;;6.78;2.80;;;5.90;75.30;;;;;;5075229;28;20050;-77
2021/04/08 08:51:49;;;;;;;6.10;2.65;;;6.00;75.40;;;;;;5083828;28;20076;-76
2021/04/08 08:54:16;;;;;;;6.93;2.78;;;6.00;75.30;;;;;;5084179;28;20409;-75
2021/04/08 08:56:42;;;;;;;7.22;2.80;;;6.10;72.70;;;;;;5084547;28;20060;-76
2021/04/08 08:59:10;;;;;;;5.50;2.58;;;6.00;73.50;;;;;;5080883;28;20079;-75
2021/04/08 09:01:39;;;;;;;4.72;2.60;;;5.90;72.70;;;;;;5073392;28;20080;-76
2021/04/08 09:04:06;;;;;;;6.55;2.80;;;6.00;71.30;;;;;;5073500;28;20490;-76
2021/04/08 09:06:35;;;;;;;7.30;2.65;;;5.90;71.00;;;;;;5073273;28;20048;-76
2021/04/08 09:09:08;;;;;;;4.93;2.38;;;6.00;72.30;;;;;;5082560;28;20052;-78
2021/04/08 09:11:36;;;;;;;6.13;3.03;;;6.00;73.30;;;;;;5085410;28;20115;-76
2021/04/08 09:14:03;;;;;;;5.43;2.58;;;6.10;67.80;;;;;;5092872;28;20044;-77
2021/04/08 09:16:31;;;;;;;5.93;2.42;;;6.10;68.50;;;;;;5093856;28;20521;-77
2021/04/08 09:19:01;;;;;;;7.47;2.47;;;5.90;70.60;;;;;;5102831;28;20073;-76
2021/04/08 09:21:42;;;;;;;6.13;2.30;;;5.90;69.60;;;;;;5103920;28;20090;-76
2021/04/08 09:24:18;;;;;;;5.97;2.50;;;5.90;72.10;;;;;;5102245;28;20074;-77
2021/04/08 09:26:50;;;;;;;6.50;2.50;;;6.00;72.80;;;;;;5093452;28;20107;-78
2021/04/08 09:29:44;;;;;;;6.80;2.45;;;6.10;72.80;;;;;;5087652;28;20055;-76
2021/04/08 09:32:33;;;;;;;6.50;2.67;;;6.20;72.90;;;;;;5094492;28;20223;-75
2021/04/08 09:35:20;;;;;;;5.38;2.65;;;6.30;69.30;;;;;;5088001;28;20090;-77
2021/04/08 09:38:20;;;;;;;5.47;2.45;;;6.30;68.30;;;;;;5094700;28;20089;-76
2021/04/08 09:41:00;;;;;;;6.00;2.60;;;6.40;67.50;;;;;;5093834;28;20134;-76
2021/04/08 09:43:27;;;;;;;5.85;2.42;;;6.50;67.10;;;;;;5092843;28;20044;-77
2021/04/08 09:46:09;;;;;;;4.78;2.35;;;6.70;64.80;;;;;;5094589;28;20048;-75
2021/04/08 09:48:48;;;;;;;7.22;2.30;;;6.80;64.60;;;;;;5103950;28;20512;-76
2021/04/08 09:51:37;;;;;;;5.00;2.17;;;6.80;64.40;;;;;;5099151;28;20091;-77
2021/04/08 09:54:10;;;;;;;6.18;2.63;;;6.70;65.90;;;;;;5085285;28;20132;-76
2021/04/08 09:56:59;;;;;;;6.20;2.45;;;6.70;64.90;;;;;;5085448;28;20350;-76
2021/04/08 09:59:27;;;;;;;4.53;2.10;;;6.80;65.20;;;;;;5073948;28;20124;-75
2021/04/08 10:01:53;;;;;;;4.88;2.30;;;6.80;62.60;;;;;;5074117;28;20504;-78
2021/04/08 10:04:23;;;;;;;4.93;2.30;;;6.80;61.80;;;;;;5073619;28;20084;-75
2021/04/08 10:07:05;;;;;;;4.72;2.33;;;6.60;63.10;;;;;;5072850;28;20451;-77
2021/04/08 10:09:32;;;;;;;5.70;2.20;;;6.50;64.90;;;;;;5073264;28;20416;-77
2021/04/08 10:12:00;;;;;;;5.55;2.20;;;6.50;65.30;;;;;;5076306;28;20056;-76
2021/04/08 10:14:30;;;;;;;5.30;2.30;;;6.60;64.00;;;;;;5082430;28;20071;-77
2021/04/08 10:17:06;;;;;;;5.15;2.20;;;6.60;63.30;;;;;;5079845;28;20049;-77
2021/04/08 10:19:35;;;;;;;6.97;2.30;;;6.70;64.00;;;;;;5056660;28;20140;-75
2021/04/08 10:22:03;;;;;;;7.80;2.50;;;6.80;63.60;;;;;;5073837;28;20472;-77
2021/04/08 10:24:40;;;;;;;6.18;2.40;;;6.70;64.60;;;;;;5073449;28;20044;-77
2021/04/08 10:27:18;;;;;;;4.85;2.35;;;6.80;63.00;;;;;;5072958;28;20128;-76
2021/04/08 10:29:48;;;;;;;5.55;2.30;;;6.80;63.80;;;;;;5072978;28;20045;-77
2021/04/08 10:32:30;;;;;;;5.70;2.15;;;6.80;64.60;;;;;;5073033;28;20565;-76
2021/04/08 10:34:57;;;;;;;6.05;2.20;;;6.90;63.80;;;;;;5055875;28;20049;-75
2021/04/08 10:37:24;;;;;;;6.18;2.40;;;6.90;64.20;;;;;;5072868;28;20502;-75
2021/04/08 10:39:50;;;;;;;5.70;2.60;;;6.90;63.60;;;;;;5072387;28;20131;-76
2021/04/08 10:42:19;;;;;;;5.85;2.38;;;7.10;63.90;;;;;;5072014;28;20080;-76
2021/04/08 10:44:47;;;;;;;5.43;2.50;;;7.10;63.30;;;;;;5072683;28;20063;-76
2021/04/08 10:47:17;;;;;;;7.50;2.53;;;7.10;62.40;;;;;;5072150;28;20119;-75
2021/04/08 10:49:47;;;;;;;6.13;1.88;;;7.10;61.80;;;;;;5074050;28;20048;-76
2021/04/08 10:52:16;;;;;;;5.78;2.17;;;7.00;63.00;;;;;;5072795;28;20572;-76
2021/04/08 10:54:45;;;;;;;6.82;2.45;;;7.10;61.00;;;;;;5072291;28;20144;-76
2021/04/08 10:57:15;;;;;;;5.65;2.60;;;7.00;63.30;;;;;;5072709;28;20080;-73
2021/04/08 10:59:45;;;;;;;6.20;2.25;;;7.00;63.00;;;;;;5054376;28;20486;-74
2021/04/08 11:02:19;;;;;;;8.27;2.95;;;7.00;63.20;;;;;;5072662;28;20136;-74
2021/04/08 11:04:46;;;;;;;4.45;2.10;;;7.20;61.10;;;;;;5073041;28;20054;-74
2021/04/08 11:07:13;;;;;;;6.47;2.40;;;7.20;61.40;;;;;;5072309;28;20468;-74
2021/04/08 11:09:40;;;;;;;5.10;2.30;;;7.20;62.60;;;;;;5072122;28;20167;-75
2021/04/08 11:12:19;;;;;;;4.88;2.22;;;7.20;62.50;;;;;;5071573;28;20918;-74
2021/04/08 11:14:50;;;;;;;6.07;2.33;;;7.20;60.90;;;;;;5072405;28;20133;-75
2021/04/08 11:17:18;;;;;;;8.57;2.38;;;7.10;62.80;;;;;;5072227;28;20052;-74
2021/04/08 11:19:45;;;;;;;6.18;2.35;;;7.10;63.60;;;;;;5090655;28;20505;-74
2021/04/08 11:22:14;;;;;;;6.50;2.47;;;7.10;63.20;;;;;;5092107;28;20182;-74
2021/04/08 11:24:42;;;;;;;5.65;2.40;;;7.10;63.30;;;;;;5092454;28;20044;-75
2021/04/08 11:27:09;;;;;;;7.25;2.55;;;7.20;62.80;;;;;;5091550;28;20044;-74
2021/04/08 11:29:36;;;;;;;4.78;2.10;;;7.30;62.30;;;;;;5092083;28;20091;-74
2021/04/08 11:32:08;;;;;;;4.53;1.90;;;7.30;64.00;;;;;;5092097;28;20135;-74
2021/04/08 11:34:46;;;;;;;5.35;2.28;;;7.40;63.40;;;;;;5091508;28;20135;-74
2021/04/08 11:37:15;;;;;;;4.60;2.22;;;7.50;62.00;;;;;;5092008;28;20052;-74
2021/04/08 11:39:43;;;;;;;5.40;2.05;;;7.60;62.50;;;;;;5091202;28;20052;-73
2021/04/08 11:42:18;;;;;;;5.15;1.88;;;7.70;62.60;;;;;;5091886;28;20569;-73
2021/04/08 11:44:46;;;;;;;5.43;1.90;;;7.80;60.80;;;;;;5091806;28;20083;-75
2021/04/08 11:47:17;;;;;;;5.15;2.05;;;7.90;59.40;;;;;;5090705;28;20445;-75
2021/04/08 11:49:49;;;;;;;5.47;2.15;;;7.90;58.10;;;;;;5091526;28;20105;-74
2021/04/08 11:52:22;;;;;;;5.25;1.90;;;7.90;58.40;;;;;;5091308;28;20096;-76
2021/04/08 11:55:00;;;;;;;6.05;1.85;;;7.90;58.10;;;;;;5091790;28;20090;-76
2021/04/08 11:57:28;;;;;;;4.72;1.80;;;7.90;59.50;;;;;;5091444;28;20135;-74
2021/04/08 12:00:06;;;;;;;5.40;2.13;;;8.00;58.50;;;;;;5091596;28;20055;-74
2021/04/08 12:02:36;;;;;;;5.07;2.08;;;8.00;57.30;;;;;;5090447;28;20131;-74
2021/04/08 12:05:09;;;;;;;4.72;2.28;;;7.90;59.10;;;;;;5101693;28;20146;-74
2021/04/08 12:07:42;;;;;;;4.55;2.08;;;8.00;58.90;;;;;;5092219;28;20056;-77
2021/04/08 12:10:24;;;;;;;3.78;2.10;;;8.00;57.30;;;;;;5091723;28;20089;-75
2021/04/08 12:12:56;;;;;;;5.47;1.90;;;8.00;55.10;;;;;;5091346;28;20362;-76
2021/04/08 12:15:39;;;;;;;5.20;1.98;;;7.90;57.00;;;;;;5091140;28;20044;-75
2021/04/08 12:18:16;;;;;;;4.20;1.98;;;8.00;57.70;;;;;;5089202;28;20249;-75
2021/04/08 12:20:43;;;;;;;6.13;2.17;;;8.10;56.60;;;;;;5073383;28;20083;-76
2021/04/08 12:23:12;;;;;;;8.90;2.50;;;8.10;56.50;;;;;;5091167;28;20090;-76
2021/04/08 12:25:51;;;;;;;4.85;1.90;;;8.00;56.20;;;;;;5073245;28;20178;-75
2021/04/08 12:28:20;;;;;;;4.80;1.80;;;8.20;54.50;;;;;;5091583;28;20044;-74
2021/04/08 12:30:56;;;;;;;4.78;1.83;;;8.20;53.50;;;;;;5090645;28;20127;-74
2021/04/08 12:33:25;;;;;;;4.05;1.70;;;8.30;51.50;;;;;;5071457;28;20053;-76
2021/04/08 12:35:52;;;;;;;4.35;1.80;;;8.10;50.90;;;;;;5071201;28;20166;-76
2021/04/08 12:38:19;;;;;;;4.90;1.90;;;8.00;53.20;;;;;;5070379;28;20135;-75
2021/04/08 12:40:48;;;;;;;4.30;1.90;;;8.00;52.90;;;;;;5072171;28;20103;-76
2021/04/08 12:43:15;;;;;;;5.63;2.13;;;8.00;53.30;;;;;;5070440;28;20102;-75
2021/04/08 12:45:42;;;;;;;5.32;2.10;;;7.90;53.90;;;;;;5070395;28;20554;-75
2021/04/08 12:48:10;;;;;;;4.70;2.10;;;7.90;53.90;;;;;;5067607;28;20076;-76
2021/04/08 12:50:41;;;;;;;4.45;2.05;;;8.00;53.70;;;;;;5070552;28;20131;-76
2021/04/08 12:53:08;;;;;;;6.05;2.10;;;8.10;54.00;;;;;;5070562;28;20079;-76
2021/04/08 12:55:35;;;;;;;4.35;1.88;;;8.10;53.20;;;;;;5070620;28;20052;-76
2021/04/08 12:58:02;;;;;;;6.80;2.55;;;8.20;52.80;;;;;;5070298;28;20131;-77
2021/04/08 13:00:30;;;;;;;6.57;1.95;;;8.40;52.70;;;;;;5052472;28;20131;-77
2021/04/08 13:02:56;;;;;;;5.05;2.17;;;8.40;53.20;;;;;;5071367;28;20049;-78
2021/04/08 13:05:24;;;;;;;5.18;1.90;;;8.50;53.90;;;;;;5069563;28;20095;-76
2021/04/08 13:07:53;;;;;;;4.10;1.85;;;8.60;52.90;;;;;;5070251;28;20553;-78
2021/04/08 13:10:20;;;;;;;4.50;2.20;;;8.80;51.70;;;;;;5069880;28;20509;-77
2021/04/08 13:12:47;;;;;;;6.43;3.05;;;9.10;52.50;;;;;;5070151;28;20091;-77
2021/04/08 13:15:15;;;;;;;4.55;2.20;;;9.40;50.00;;;;;;5070284;28;20135;-76